Time;durP1;ratioP1;P1;durP2;ratioP2;P2;SDS_P1;SDS_P2;PMS_P1;PMS_P2;Temp;Humidity;BMP_temperature;BMP_pressure;BME280_temperature;BME280_humidity;BME280_pressure;Samples;Min_cycle;Max_cycle;Signal;HPM_P1;HPM_P2
2021/03/08 00:01:45;;;;;;;18.47;8.93;;;6.60;99.90;;;;;;5069984;28;20446;-49
2021/03/08 00:04:12;;;;;;;19.30;10.20;;;6.70;99.90;;;;;;5068968;28;21069;-49
2021/03/08 00:06:38;;;;;;;31.67;14.60;;;6.50;99.90;;;;;;5070162;28;20453;-49
2021/03/08 00:09:08;;;;;;;22.80;14.57;;;6.50;99.90;;;;;;5070050;28;20478;-49
2021/03/08 00:11:35;;;;;;;27.77;15.40;;;6.40;99.90;;;;;;5070497;28;20511;-50
2021/03/08 00:14:01;;;;;;;22.43;12.90;;;6.50;99.90;;;;;;5056882;28;20478;-49
2021/03/08 00:16:28;;;;;;;27.33;14.33;;;6.50;99.90;;;;;;5050078;28;20476;-50
2021/03/08 00:18:56;;;;;;;19.07;9.40;;;6.50;99.90;;;;;;5062072;28;20442;-50
2021/03/08 00:21:22;;;;;;;18.27;9.03;;;6.40;99.90;;;;;;5070180;28;20446;-50
2021/03/08 00:23:49;;;;;;;17.40;8.97;;;6.70;99.90;;;;;;5069131;28;20460;-49
2021/03/08 00:26:15;;;;;;;15.77;9.03;;;6.70;99.90;;;;;;5072509;28;20454;-50
2021/03/08 00:28:42;;;;;;;13.90;8.07;;;6.60;99.90;;;;;;5074256;28;20500;-49
2021/03/08 00:31:08;;;;;;;14.47;8.67;;;6.60;99.90;;;;;;5074161;28;20442;-49
2021/03/08 00:33:35;;;;;;;17.60;9.40;;;6.40;99.90;;;;;;5063615;28;20447;-50
2021/03/08 00:36:02;;;;;;;15.93;8.70;;;6.20;99.90;;;;;;5053882;28;20453;-49
2021/03/08 00:38:29;;;;;;;22.93;11.40;;;6.30;99.90;;;;;;5070972;28;20449;-49
2021/03/08 00:40:56;;;;;;;20.90;11.13;;;6.30;99.90;;;;;;5074058;28;20516;-50
2021/03/08 00:43:22;;;;;;;21.83;12.97;;;6.20;99.90;;;;;;5072853;28;20952;-49
2021/03/08 00:45:49;;;;;;;23.57;13.80;;;6.10;99.90;;;;;;5072510;28;20841;-49
2021/03/08 00:48:15;;;;;;;24.80;13.50;;;6.30;99.90;;;;;;5073658;28;20486;-49
2021/03/08 00:50:42;;;;;;;29.87;17.40;;;6.30;99.90;;;;;;5073972;28;20450;-49
2021/03/08 00:53:09;;;;;;;27.03;15.43;;;6.30;99.90;;;;;;5073252;28;20456;-49
2021/03/08 00:55:36;;;;;;;27.60;15.30;;;6.40;99.90;;;;;;5073332;28;20480;-49
2021/03/08 00:58:02;;;;;;;28.67;16.03;;;6.50;99.90;;;;;;5073671;28;20778;-49
2021/03/08 01:00:29;;;;;;;24.90;13.60;;;6.50;99.90;;;;;;5073276;28;20459;-49
2021/03/08 01:02:56;;;;;;;29.43;15.50;;;6.60;99.90;;;;;;5070273;28;20560;-49
2021/03/08 01:05:24;;;;;;;21.47;11.90;;;6.60;99.90;;;;;;5053205;28;20480;-49
2021/03/08 01:07:50;;;;;;;20.73;9.80;;;6.60;99.90;;;;;;5058514;28;20489;-49
2021/03/08 01:10:20;;;;;;;15.00;8.60;;;6.60;99.90;;;;;;5073131;28;20451;-49
2021/03/08 01:12:47;;;;;;;16.73;9.43;;;6.60;99.90;;;;;;5072677;28;20452;-49
2021/03/08 01:15:15;;;;;;;17.97;8.00;;;6.70;99.90;;;;;;5073023;28;20469;-49
2021/03/08 01:17:41;;;;;;;12.70;7.83;;;6.70;99.90;;;;;;5073227;28;20454;-49
2021/03/08 01:20:10;;;;;;;14.73;7.47;;;6.90;99.90;;;;;;5073099;28;20878;-49
2021/03/08 01:22:37;;;;;;;14.10;7.57;;;6.80;99.90;;;;;;5072741;28;20457;-49
2021/03/08 01:25:08;;;;;;;12.40;7.80;;;6.70;99.90;;;;;;5072579;28;20467;-49
2021/03/08 01:27:36;;;;;;;13.30;7.37;;;6.70;99.90;;;;;;5073305;28;20450;-50
2021/03/08 01:30:04;;;;;;;13.53;7.37;;;6.60;99.90;;;;;;5073599;28;20454;-49
2021/03/08 01:32:30;;;;;;;12.07;7.80;;;6.60;99.90;;;;;;5072710;28;20443;-50
2021/03/08 01:34:57;;;;;;;16.00;8.50;;;6.60;99.90;;;;;;5072768;28;20474;-49
2021/03/08 01:37:23;;;;;;;14.50;8.47;;;6.70;99.90;;;;;;5071796;28;20986;-49
2021/03/08 01:39:50;;;;;;;17.50;9.00;;;6.70;99.90;;;;;;5072994;28;20454;-49
2021/03/08 01:42:16;;;;;;;16.90;9.13;;;6.70;99.90;;;;;;5071174;28;20454;-49
2021/03/08 01:44:44;;;;;;;17.20;9.10;;;6.60;99.90;;;;;;5072552;28;20476;-50
2021/03/08 01:47:10;;;;;;;16.80;9.23;;;6.60;99.90;;;;;;5072637;28;20454;-50
2021/03/08 01:49:37;;;;;;;16.47;9.83;;;6.60;99.90;;;;;;5072777;28;20486;-50
2021/03/08 01:52:04;;;;;;;29.13;16.03;;;6.70;99.90;;;;;;5064439;28;20460;-50
2021/03/08 01:54:30;;;;;;;35.83;17.50;;;6.70;99.90;;;;;;5069043;28;20475;-50
2021/03/08 01:56:58;;;;;;;35.53;19.50;;;6.60;99.90;;;;;;5072425;28;20476;-49
2021/03/08 01:59:24;;;;;;;35.70;19.47;;;6.40;99.90;;;;;;5072502;28;20443;-49
2021/03/08 02:01:52;;;;;;;41.13;23.03;;;6.40;99.90;;;;;;5071202;28;20541;-49
2021/03/08 02:04:18;;;;;;;38.40;21.77;;;6.30;99.90;;;;;;5068880;28;20834;-49
2021/03/08 02:06:45;;;;;;;40.13;21.20;;;6.20;99.90;;;;;;5052344;28;20458;-49
2021/03/08 02:09:14;;;;;;;47.63;24.37;;;6.10;99.90;;;;;;5068465;28;20477;-50
2021/03/08 02:11:45;;;;;;;43.43;24.00;;;6.00;99.90;;;;;;5070118;28;20451;-50
2021/03/08 02:14:32;;;;;;;42.37;23.80;;;5.90;99.90;;;;;;5069081;28;20474;-50
2021/03/08 02:17:07;;;;;;;41.70;22.63;;;5.90;99.90;;;;;;5061440;28;20478;-50
2021/03/08 02:20:04;;;;;;;44.50;23.83;;;5.90;99.90;;;;;;5071768;28;20450;-49
2021/03/08 02:23:04;;;;;;;47.43;24.00;;;6.10;99.90;;;;;;5065147;28;20460;-50
2021/03/08 02:25:52;;;;;;;46.67;24.40;;;6.00;99.90;;;;;;5071860;28;20498;-49
2021/03/08 02:28:47;;;;;;;43.10;23.10;;;6.00;99.90;;;;;;5060244;28;20530;-50
2021/03/08 02:31:16;;;;;;;42.63;23.67;;;5.80;99.90;;;;;;5069564;28;20460;-50
2021/03/08 02:33:51;;;;;;;45.13;24.60;;;5.90;99.90;;;;;;5063330;28;20446;-50
2021/03/08 02:36:21;;;;;;;41.87;22.97;;;5.90;99.90;;;;;;5071004;28;20488;-50
2021/03/08 02:38:52;;;;;;;41.60;23.50;;;5.90;99.90;;;;;;5071163;28;20438;-49
2021/03/08 02:41:20;;;;;;;42.60;22.53;;;5.80;99.90;;;;;;5070913;28;20848;-50
2021/03/08 02:43:52;;;;;;;46.10;24.80;;;5.80;99.90;;;;;;5069956;28;20942;-49
2021/03/08 02:46:22;;;;;;;42.30;22.47;;;5.80;99.90;;;;;;5071488;28;20443;-49
2021/03/08 02:48:51;;;;;;;42.40;22.30;;;5.80;99.90;;;;;;5071461;28;20879;-49
2021/03/08 02:51:22;;;;;;;41.83;23.20;;;5.80;99.90;;;;;;5071509;28;20455;-49
2021/03/08 02:53:50;;;;;;;39.67;21.70;;;6.00;99.90;;;;;;5064945;28;20505;-50
2021/03/08 02:56:19;;;;;;;38.90;22.47;;;6.00;99.90;;;;;;5051361;28;21005;-49
2021/03/08 02:58:48;;;;;;;41.33;22.50;;;6.00;99.90;;;;;;5069420;28;20454;-50
2021/03/08 03:01:16;;;;;;;40.30;22.17;;;6.00;99.90;;;;;;5071204;28;20459;-50
2021/03/08 03:03:47;;;;;;;44.83;23.27;;;6.00;99.90;;;;;;5070530;28;20858;-50
2021/03/08 03:06:15;;;;;;;42.83;20.73;;;6.00;99.90;;;;;;5069785;28;20851;-49
2021/03/08 03:08:44;;;;;;;39.00;22.17;;;6.10;99.90;;;;;;5070915;28;20990;-49
2021/03/08 03:11:12;;;;;;;41.93;22.40;;;6.10;99.90;;;;;;5071164;28;20793;-50
2021/03/08 03:13:42;;;;;;;41.37;22.13;;;6.10;99.90;;;;;;5070294;28;20451;-49
2021/03/08 03:16:09;;;;;;;41.93;22.53;;;6.10;99.90;;;;;;5071087;28;20458;-49
2021/03/08 03:18:38;;;;;;;42.97;22.90;;;6.10;99.90;;;;;;5071023;28;20443;-49
2021/03/08 03:21:07;;;;;;;39.20;21.80;;;6.10;99.90;;;;;;5070546;28;20508;-49
2021/03/08 03:23:36;;;;;;;40.30;21.40;;;6.10;99.90;;;;;;5067678;28;20445;-50
2021/03/08 03:26:06;;;;;;;45.50;24.03;;;6.10;99.90;;;;;;5065402;28;20458;-49
2021/03/08 03:28:33;;;;;;;49.63;23.83;;;5.90;99.90;;;;;;5070545;28;20915;-50
2021/03/08 03:31:01;;;;;;;43.83;23.53;;;5.60;99.90;;;;;;5071061;28;20500;-50
2021/03/08 03:33:28;;;;;;;43.93;23.67;;;5.60;99.90;;;;;;5068852;28;20449;-50
2021/03/08 03:35:55;;;;;;;47.47;25.10;;;5.60;99.90;;;;;;5056647;28;20466;-50
2021/03/08 03:38:23;;;;;;;43.00;23.50;;;5.70;99.90;;;;;;5070751;28;20450;-50
2021/03/08 03:40:51;;;;;;;47.87;23.30;;;5.90;99.90;;;;;;5069850;28;20443;-50
2021/03/08 03:43:18;;;;;;;46.77;23.40;;;5.60;99.90;;;;;;5069957;28;20446;-49
2021/03/08 03:45:45;;;;;;;45.27;23.47;;;5.60;99.90;;;;;;5069690;28;20469;-50
2021/03/08 03:48:12;;;;;;;52.80;25.30;;;5.60;99.90;;;;;;5070705;28;20537;-49
2021/03/08 03:50:39;;;;;;;47.00;24.90;;;5.50;99.90;;;;;;5070407;28;20447;-50
2021/03/08 03:53:06;;;;;;;42.60;24.20;;;5.50;99.90;;;;;;5070606;28;20468;-50
2021/03/08 03:55:33;;;;;;;41.87;22.47;;;5.60;99.90;;;;;;5069471;28;20476;-50
2021/03/08 03:58:07;;;;;;;42.83;21.87;;;5.70;99.90;;;;;;5069756;28;20447;-50
2021/03/08 04:00:42;;;;;;;40.20;21.53;;;5.70;99.90;;;;;;5069586;28;20462;-49
2021/03/08 04:03:10;;;;;;;45.40;22.40;;;5.80;99.90;;;;;;5070604;28;20537;-49
2021/03/08 04:05:39;;;;;;;43.97;22.03;;;5.40;99.90;;;;;;5069107;28;20532;-49
2021/03/08 04:08:08;;;;;;;44.43;21.10;;;5.10;99.90;;;;;;5070293;28;20517;-50
2021/03/08 04:10:37;;;;;;;43.87;20.30;;;5.00;99.90;;;;;;5070655;28;20454;-49
2021/03/08 04:13:09;;;;;;;43.03;20.13;;;4.90;99.90;;;;;;5069879;28;20447;-49
2021/03/08 04:15:37;;;;;;;40.30;19.53;;;4.90;99.90;;;;;;5051504;28;20479;-49
2021/03/08 04:18:06;;;;;;;40.33;19.53;;;4.90;99.90;;;;;;5063212;28;20496;-49
2021/03/08 04:20:34;;;;;;;38.10;19.57;;;4.80;99.90;;;;;;5070271;28;20454;-50
2021/03/08 04:23:06;;;;;;;38.87;19.90;;;4.90;99.90;;;;;;5070581;28;20553;-50
2021/03/08 04:25:34;;;;;;;36.70;18.37;;;5.10;99.90;;;;;;5052249;28;20530;-50
2021/03/08 04:28:05;;;;;;;40.33;20.37;;;5.20;99.90;;;;;;5050280;28;20479;-50
2021/03/08 04:30:33;;;;;;;41.13;20.40;;;5.10;99.90;;;;;;5069114;28;20458;-50
2021/03/08 04:33:00;;;;;;;40.00;20.37;;;4.90;99.90;;;;;;5070258;28;20450;-50
2021/03/08 04:35:31;;;;;;;44.57;21.33;;;4.80;99.90;;;;;;5069500;28;20467;-50
2021/03/08 04:37:59;;;;;;;40.63;19.43;;;4.80;99.90;;;;;;5069915;28;20450;-50
2021/03/08 04:40:26;;;;;;;43.40;20.77;;;4.80;99.90;;;;;;5050511;28;20452;-50
2021/03/08 04:42:54;;;;;;;46.60;22.40;;;4.90;99.90;;;;;;5069862;28;20635;-49
2021/03/08 04:45:22;;;;;;;43.17;22.37;;;4.90;99.90;;;;;;5069154;28;20505;-50
2021/03/08 04:47:50;;;;;;;40.70;21.40;;;5.00;99.90;;;;;;5069450;28;20450;-50
2021/03/08 04:50:17;;;;;;;42.53;21.90;;;5.20;99.90;;;;;;5069966;28;20508;-50
2021/03/08 04:52:46;;;;;;;35.80;20.37;;;5.40;99.90;;;;;;5070271;28;20461;-50
2021/03/08 04:55:14;;;;;;;33.83;19.47;;;5.40;99.90;;;;;;5069214;28;20480;-49
2021/03/08 04:57:42;;;;;;;43.57;20.80;;;5.50;99.90;;;;;;5070049;28;20475;-49
2021/03/08 05:00:10;;;;;;;43.73;19.57;;;5.30;99.90;;;;;;5070205;28;20469;-50
2021/03/08 05:02:41;;;;;;;41.27;21.43;;;5.30;99.90;;;;;;5070125;28;20850;-50
2021/03/08 05:05:09;;;;;;;39.00;20.17;;;5.20;99.90;;;;;;5065261;28;20471;-50
2021/03/08 05:07:38;;;;;;;35.97;19.30;;;5.20;99.90;;;;;;5069926;28;20463;-50
2021/03/08 05:10:07;;;;;;;37.87;18.97;;;5.40;99.90;;;;;;5069948;28;20502;-50
2021/03/08 05:12:36;;;;;;;35.77;18.87;;;5.50;99.90;;;;;;5072334;28;20959;-50
2021/03/08 05:15:05;;;;;;;37.67;20.00;;;5.60;99.90;;;;;;5060541;28;20610;-49
2021/03/08 05:17:34;;;;;;;36.47;19.67;;;5.80;99.90;;;;;;5072742;28;20451;-50
2021/03/08 05:20:04;;;;;;;43.57;20.07;;;5.70;99.90;;;;;;5072077;28;20452;-49
2021/03/08 05:22:34;;;;;;;36.30;19.27;;;5.40;99.90;;;;;;5073214;28;20450;-50
2021/03/08 05:25:01;;;;;;;39.03;20.43;;;5.10;99.90;;;;;;5061523;28;20887;-50
2021/03/08 05:27:28;;;;;;;43.50;20.53;;;4.80;99.90;;;;;;5063962;28;20452;-49
2021/03/08 05:29:55;;;;;;;40.27;21.07;;;4.60;99.90;;;;;;5052987;28;20479;-50
2021/03/08 05:32:28;;;;;;;38.93;19.60;;;4.60;99.90;;;;;;5053164;28;20475;-50
2021/03/08 05:34:55;;;;;;;44.57;20.73;;;4.50;99.90;;;;;;5062988;28;20502;-49
2021/03/08 05:37:23;;;;;;;38.13;19.63;;;4.50;99.90;;;;;;5072985;28;20462;-49
2021/03/08 05:39:51;;;;;;;40.77;18.90;;;4.50;99.90;;;;;;5053783;28;20448;-50
2021/03/08 05:42:19;;;;;;;41.37;19.93;;;4.60;99.90;;;;;;5052837;28;20968;-50
2021/03/08 05:44:51;;;;;;;38.97;19.00;;;4.60;99.90;;;;;;5061092;28;20473;-50
2021/03/08 05:47:39;;;;;;;41.53;19.00;;;4.50;99.90;;;;;;5072920;28;20496;-50
2021/03/08 05:50:35;;;;;;;37.83;18.60;;;4.50;99.90;;;;;;5072655;28;20482;-50
2021/03/08 05:53:41;;;;;;;35.50;17.50;;;4.40;99.90;;;;;;5061867;28;20859;-50
2021/03/08 05:56:37;;;;;;;38.83;18.30;;;4.40;99.90;;;;;;5056571;22;20502;-51
2021/03/08 05:59:30;;;;;;;34.13;17.43;;;4.40;99.90;;;;;;5072516;28;20450;-52
2021/03/08 06:02:13;;;;;;;34.10;17.67;;;4.40;99.90;;;;;;5072507;28;20866;-52
2021/03/08 06:05:07;;;;;;;35.60;16.40;;;4.50;99.90;;;;;;5070979;28;20446;-51
2021/03/08 06:08:05;;;;;;;35.40;17.70;;;4.40;99.90;;;;;;5070374;28;20443;-50
2021/03/08 06:10:41;;;;;;;33.30;16.97;;;4.30;99.90;;;;;;5061973;28;20457;-51
2021/03/08 06:13:10;;;;;;;33.77;16.97;;;4.30;99.90;;;;;;5071918;28;20446;-50
2021/03/08 06:15:37;;;;;;;38.10;17.90;;;4.40;99.90;;;;;;5077186;28;21011;-51
2021/03/08 06:18:07;;;;;;;30.07;16.07;;;4.30;99.90;;;;;;5092781;28;20457;-51
2021/03/08 06:20:34;;;;;;;36.90;17.63;;;4.20;99.90;;;;;;5072506;28;20606;-51
2021/03/08 06:23:03;;;;;;;36.67;18.40;;;4.30;99.90;;;;;;5071374;28;20811;-51
2021/03/08 06:25:30;;;;;;;31.07;15.57;;;4.50;99.90;;;;;;5071888;28;20487;-51
2021/03/08 06:27:58;;;;;;;35.70;18.40;;;4.70;99.90;;;;;;5085472;28;20461;-51
2021/03/08 06:30:25;;;;;;;38.33;20.23;;;4.70;99.90;;;;;;5092398;28;20445;-51
2021/03/08 06:32:52;;;;;;;32.70;17.93;;;4.70;99.90;;;;;;5092358;28;21007;-51
2021/03/08 06:35:19;;;;;;;36.03;16.80;;;4.70;99.90;;;;;;5090203;28;20496;-51
2021/03/08 06:37:47;;;;;;;35.63;17.60;;;4.80;99.90;;;;;;5071830;28;20469;-51
2021/03/08 06:40:16;;;;;;;29.03;15.90;;;4.80;99.90;;;;;;5070693;28;20959;-51
2021/03/08 06:42:43;;;;;;;30.63;17.20;;;4.70;99.90;;;;;;5071538;28;20854;-52
2021/03/08 06:45:12;;;;;;;34.70;17.60;;;4.70;99.90;;;;;;5070822;28;20986;-52
2021/03/08 06:47:39;;;;;;;33.57;17.00;;;4.80;99.90;;;;;;5071421;28;20984;-51
2021/03/08 06:50:06;;;;;;;31.30;15.87;;;4.80;99.90;;;;;;5071012;28;20486;-51
2021/03/08 06:52:40;;;;;;;31.50;17.00;;;4.60;99.90;;;;;;5071669;28;20455;-51
2021/03/08 06:55:08;;;;;;;33.90;16.53;;;4.50;99.90;;;;;;5071928;28;20467;-51
2021/03/08 06:57:36;;;;;;;32.07;16.00;;;4.40;99.90;;;;;;5070235;28;20453;-51
2021/03/08 07:00:06;;;;;;;29.80;16.03;;;4.40;99.90;;;;;;5071309;28;20443;-52
2021/03/08 07:02:38;;;;;;;34.10;16.67;;;4.50;99.90;;;;;;5072292;28;20526;-52
2021/03/08 07:05:06;;;;;;;31.87;16.23;;;4.70;99.90;;;;;;5088729;28;20606;-50
2021/03/08 07:07:48;;;;;;;30.00;15.50;;;4.80;99.90;;;;;;5073564;28;20438;-52
2021/03/08 07:10:16;;;;;;;28.03;15.90;;;4.90;99.90;;;;;;5071403;28;20514;-51
2021/03/08 07:12:49;;;;;;;30.67;16.50;;;4.90;99.90;;;;;;5066214;28;20458;-51
2021/03/08 07:15:16;;;;;;;28.40;16.40;;;5.00;99.90;;;;;;5070584;28;20467;-52
2021/03/08 07:17:43;;;;;;;33.17;16.03;;;5.00;99.90;;;;;;5064283;28;20455;-51
2021/03/08 07:20:12;;;;;;;29.23;15.57;;;5.00;99.90;;;;;;5070801;28;20455;-51
2021/03/08 07:22:42;;;;;;;27.87;15.13;;;5.10;99.90;;;;;;5069421;28;20501;-51
2021/03/08 07:25:20;;;;;;;28.37;15.70;;;5.30;99.90;;;;;;5070550;28;20485;-51
2021/03/08 07:27:49;;;;;;;29.67;15.50;;;5.40;99.90;;;;;;5080968;28;20469;-52
2021/03/08 07:30:18;;;;;;;32.33;16.00;;;5.40;99.90;;;;;;5069966;28;20490;-51
2021/03/08 07:32:59;;;;;;;28.17;15.07;;;5.40;99.90;;;;;;5069629;28;20477;-51
2021/03/08 07:35:37;;;;;;;32.43;15.87;;;5.50;99.90;;;;;;5067728;28;20862;-51
2021/03/08 07:38:05;;;;;;;28.87;15.17;;;5.30;99.90;;;;;;5069089;28;20430;-52
2021/03/08 07:40:33;;;;;;;30.57;16.30;;;5.60;99.90;;;;;;5068554;28;20463;-50
2021/03/08 07:43:00;;;;;;;29.40;14.70;;;5.60;99.90;;;;;;5068923;28;20438;-52
2021/03/08 07:45:45;;;;;;;27.07;15.40;;;5.90;99.90;;;;;;5069062;28;20841;-51
2021/03/08 07:48:14;;;;;;;27.73;15.40;;;6.40;99.90;;;;;;5063685;28;20459;-51
2021/03/08 07:50:42;;;;;;;31.07;15.60;;;6.60;99.90;;;;;;5060985;28;20467;-51
2021/03/08 07:53:29;;;;;;;29.37;14.50;;;6.80;99.90;;;;;;5062129;28;20471;-51
2021/03/08 07:55:57;;;;;;;27.77;15.37;;;6.40;99.90;;;;;;5059797;28;20486;-51
2021/03/08 07:58:26;;;;;;;29.70;15.07;;;6.60;99.90;;;;;;5060469;28;20471;-51
2021/03/08 08:00:52;;;;;;;29.00;14.17;;;6.90;99.90;;;;;;5060641;28;20530;-51
2021/03/08 08:03:20;;;;;;;23.13;13.63;;;6.90;99.90;;;;;;5061507;28;20488;-51
2021/03/08 08:05:53;;;;;;;24.40;13.70;;;6.90;99.90;;;;;;5061705;28;20494;-51
2021/03/08 08:08:20;;;;;;;28.50;15.00;;;7.10;99.90;;;;;;5059430;28;20488;-51
2021/03/08 08:10:53;;;;;;;26.30;14.80;;;7.10;99.90;;;;;;5061824;28;21005;-51
2021/03/08 08:13:22;;;;;;;28.37;15.10;;;6.80;99.90;;;;;;5061704;28;20501;-51
2021/03/08 08:15:50;;;;;;;26.20;14.87;;;7.30;99.90;;;;;;5061546;28;20487;-52
2021/03/08 08:18:21;;;;;;;28.27;15.00;;;7.60;99.90;;;;;;5061603;28;20536;-51
2021/03/08 08:20:51;;;;;;;22.57;13.90;;;7.20;99.90;;;;;;5060937;28;20463;-52
2021/03/08 08:23:20;;;;;;;33.63;14.87;;;7.10;99.90;;;;;;5063807;28;20459;-51
2021/03/08 08:25:47;;;;;;;27.20;14.13;;;7.20;99.90;;;;;;5058879;28;20491;-51
2021/03/08 08:28:19;;;;;;;25.40;15.13;;;6.70;99.90;;;;;;5060087;28;20458;-52
2021/03/08 08:30:56;;;;;;;23.93;13.67;;;6.80;99.90;;;;;;5060540;28;20463;-51
2021/03/08 08:33:33;;;;;;;25.90;15.03;;;6.90;99.90;;;;;;5063753;28;20494;-51
2021/03/08 08:36:08;;;;;;;22.30;12.90;;;6.70;99.90;;;;;;5061665;28;20478;-52
2021/03/08 08:38:34;;;;;;;24.60;13.80;;;7.00;99.90;;;;;;5062009;28;20539;-51
2021/03/08 08:41:21;;;;;;;27.90;14.60;;;6.90;99.90;;;;;;5061172;28;20469;-51
2021/03/08 08:43:49;;;;;;;28.93;15.10;;;6.90;99.90;;;;;;5060495;28;20455;-51
2021/03/08 08:46:28;;;;;;;24.37;13.73;;;7.20;99.90;;;;;;5060870;28;20475;-51
2021/03/08 08:49:06;;;;;;;23.77;13.77;;;7.10;99.90;;;;;;5068424;28;20480;-51
2021/03/08 08:51:47;;;;;;;27.90;14.43;;;7.10;99.90;;;;;;5072241;28;20577;-51
2021/03/08 08:54:47;;;;;;;29.03;14.37;;;7.50;99.90;;;;;;5073260;28;20438;-51
2021/03/08 08:57:13;;;;;;;24.43;14.03;;;7.80;99.90;;;;;;5067936;28;20476;-51
2021/03/08 08:59:48;;;;;;;22.03;13.53;;;7.40;99.90;;;;;;5072782;28;20463;-52
2021/03/08 09:02:31;;;;;;;28.43;14.70;;;7.60;99.90;;;;;;5073014;28;20470;-52
2021/03/08 09:04:59;;;;;;;26.10;14.23;;;7.70;99.90;;;;;;5066628;28;20463;-52
2021/03/08 09:07:27;;;;;;;25.63;14.60;;;8.00;99.90;;;;;;5062411;28;20538;-51
2021/03/08 09:09:55;;;;;;;26.20;14.27;;;7.10;99.90;;;;;;5070755;28;20486;-52
2021/03/08 09:12:33;;;;;;;25.87;14.13;;;7.00;99.90;;;;;;5072553;28;20472;-52
2021/03/08 09:15:00;;;;;;;26.90;14.27;;;7.20;99.90;;;;;;5072247;28;20881;-52
2021/03/08 09:17:28;;;;;;;22.40;13.27;;;7.90;99.90;;;;;;5072026;28;20526;-52
2021/03/08 09:20:27;;;;;;;27.20;14.40;;;8.20;99.90;;;;;;5069986;28;20466;-53
2021/03/08 09:22:57;;;;;;;24.37;13.83;;;8.60;99.90;;;;;;5071283;28;20844;-52
2021/03/08 09:25:25;;;;;;;24.20;13.60;;;9.20;99.90;;;;;;5071895;28;20471;-52
2021/03/08 09:28:03;;;;;;;26.03;14.40;;;8.60;99.90;;;;;;5070704;28;20488;-50
2021/03/08 09:30:31;;;;;;;24.30;13.70;;;9.40;99.90;;;;;;5066119;28;20901;-51
2021/03/08 09:33:01;;;;;;;30.40;15.40;;;9.30;99.90;;;;;;5072176;28;20474;-51
2021/03/08 09:35:30;;;;;;;22.93;13.23;;;9.20;99.90;;;;;;5071561;28;20487;-52
2021/03/08 09:38:00;;;;;;;24.60;14.10;;;9.00;99.90;;;;;;5071431;28;20477;-53
2021/03/08 09:40:29;;;;;;;26.03;14.60;;;9.30;99.90;;;;;;5069689;28;21183;-53
2021/03/08 09:42:57;;;;;;;27.50;15.77;;;9.70;99.90;;;;;;5072559;28;20439;-53
2021/03/08 09:45:27;;;;;;;28.20;16.40;;;8.60;99.90;;;;;;5071180;28;20511;-53
2021/03/08 09:47:54;;;;;;;25.40;15.23;;;8.90;99.90;;;;;;5072138;28;20551;-52
2021/03/08 09:50:29;;;;;;;29.57;16.97;;;8.20;99.90;;;;;;5071240;28;20494;-52
2021/03/08 09:52:56;;;;;;;30.37;16.33;;;8.20;99.90;;;;;;5072676;28;20469;-53
2021/03/08 09:55:26;;;;;;;29.10;16.43;;;7.70;99.90;;;;;;5070895;28;20579;-51
2021/03/08 09:57:53;;;;;;;30.53;16.40;;;7.60;99.90;;;;;;5070960;28;20467;-52
2021/03/08 10:00:22;;;;;;;28.40;15.97;;;7.90;99.90;;;;;;5068810;28;21695;-52
2021/03/08 10:02:57;;;;;;;29.47;17.23;;;8.20;99.90;;;;;;5071737;28;20512;-52
2021/03/08 10:05:36;;;;;;;29.23;16.10;;;7.60;99.90;;;;;;5072134;28;20493;-52
2021/03/08 10:08:05;;;;;;;28.43;16.53;;;7.30;99.90;;;;;;5071480;28;20492;-53
2021/03/08 10:10:31;;;;;;;27.30;15.83;;;7.90;99.90;;;;;;5071116;28;20549;-52
2021/03/08 10:12:58;;;;;;;31.90;16.60;;;8.10;99.90;;;;;;5071722;28;20512;-52
2021/03/08 10:15:25;;;;;;;27.20;15.20;;;7.80;99.90;;;;;;5068944;28;20879;-52
2021/03/08 10:18:00;;;;;;;25.60;14.50;;;8.10;99.90;;;;;;5064272;28;20455;-52
2021/03/08 10:20:27;;;;;;;29.13;16.03;;;8.10;99.90;;;;;;5064607;28;20488;-52
2021/03/08 10:22:54;;;;;;;29.70;15.33;;;8.70;99.90;;;;;;5062167;28;20459;-51
2021/03/08 10:25:24;;;;;;;24.93;14.90;;;9.10;99.90;;;;;;5062893;28;20548;-52
2021/03/08 10:27:55;;;;;;;25.23;14.70;;;9.50;99.90;;;;;;5061948;28;20459;-53
2021/03/08 10:30:23;;;;;;;26.87;15.90;;;9.60;99.90;;;;;;5064030;28;21002;-52
2021/03/08 10:32:55;;;;;;;25.80;14.80;;;9.10;99.90;;;;;;5061437;28;20462;-52
2021/03/08 10:35:25;;;;;;;28.90;15.80;;;8.90;99.90;;;;;;5064950;28;20478;-51
2021/03/08 10:37:52;;;;;;;26.60;15.57;;;9.30;99.90;;;;;;5070699;28;20454;-53
2021/03/08 10:40:21;;;;;;;25.93;15.10;;;10.00;99.90;;;;;;5069689;28;20469;-52
2021/03/08 10:42:49;;;;;;;24.90;14.73;;;10.40;99.90;;;;;;5068612;28;20466;-53
2021/03/08 10:45:17;;;;;;;25.57;14.53;;;10.10;99.90;;;;;;5063205;28;20490;-53
2021/03/08 10:47:43;;;;;;;26.47;15.00;;;10.00;99.90;;;;;;5067974;28;20462;-54
2021/03/08 10:50:10;;;;;;;26.40;15.53;;;10.30;99.90;;;;;;5059404;28;21039;-52
2021/03/08 10:52:37;;;;;;;24.60;14.63;;;9.90;99.90;;;;;;5060753;28;20855;-53
2021/03/08 10:55:04;;;;;;;25.27;14.47;;;9.60;99.90;;;;;;5061162;28;20893;-52
2021/03/08 10:57:30;;;;;;;27.33;14.53;;;9.60;99.90;;;;;;5063120;28;20523;-54
2021/03/08 10:59:58;;;;;;;26.70;13.83;;;9.40;99.90;;;;;;5062219;28;20603;-53
2021/03/08 11:02:25;;;;;;;22.07;13.60;;;9.70;99.90;;;;;;5063997;28;20472;-53
2021/03/08 11:05:10;;;;;;;23.90;13.87;;;9.80;99.90;;;;;;5062201;28;20492;-53
2021/03/08 11:07:37;;;;;;;24.13;14.43;;;9.60;99.90;;;;;;5061322;28;20870;-53
2021/03/08 11:10:05;;;;;;;22.70;14.40;;;9.40;99.90;;;;;;5062654;28;20489;-53
2021/03/08 11:12:31;;;;;;;23.30;13.77;;;9.30;99.90;;;;;;5061876;28;20487;-52
2021/03/08 11:15:00;;;;;;;24.00;13.60;;;9.00;99.90;;;;;;5061543;28;20462;-52
2021/03/08 11:17:35;;;;;;;26.50;14.50;;;8.90;99.90;;;;;;5062969;28;20459;-53
2021/03/08 11:20:12;;;;;;;25.40;13.90;;;9.00;99.90;;;;;;5062926;28;20457;-52
2021/03/08 11:22:57;;;;;;;22.23;13.10;;;9.40;99.90;;;;;;5072617;28;20464;-53
2021/03/08 11:25:38;;;;;;;22.90;13.30;;;9.10;99.90;;;;;;5090676;28;20465;-52
2021/03/08 11:28:07;;;;;;;23.63;12.70;;;9.10;99.90;;;;;;5061856;28;20554;-53
2021/03/08 11:30:35;;;;;;;23.87;12.97;;;9.30;99.90;;;;;;5061492;28;20486;-52
2021/03/08 11:33:05;;;;;;;21.10;12.10;;;9.30;99.90;;;;;;5063361;28;20466;-52
2021/03/08 11:35:33;;;;;;;20.33;12.10;;;9.50;99.90;;;;;;5068746;28;20494;-51
2021/03/08 11:38:04;;;;;;;22.33;12.90;;;9.80;99.90;;;;;;5061266;28;20463;-53
2021/03/08 11:40:30;;;;;;;24.23;12.50;;;9.60;99.90;;;;;;5061915;28;21049;-53
2021/03/08 11:42:57;;;;;;;21.77;11.60;;;9.60;99.90;;;;;;5062275;28;20507;-53
2021/03/08 11:45:25;;;;;;;22.30;12.67;;;9.70;99.90;;;;;;5067474;28;20490;-53
2021/03/08 11:47:54;;;;;;;22.17;14.10;;;9.60;99.90;;;;;;5065789;28;20975;-53
2021/03/08 11:50:22;;;;;;;20.30;11.73;;;9.50;99.90;;;;;;5064435;28;20487;-53
2021/03/08 11:52:49;;;;;;;21.53;12.37;;;9.10;99.90;;;;;;5064566;28;20886;-54
2021/03/08 11:55:17;;;;;;;25.87;12.60;;;8.90;99.90;;;;;;5061232;28;20486;-53
2021/03/08 11:57:44;;;;;;;21.70;12.73;;;8.90;99.90;;;;;;5061776;28;20469;-52
2021/03/08 12:00:13;;;;;;;20.60;11.93;;;9.40;99.90;;;;;;5061157;28;20499;-52
2021/03/08 12:02:40;;;;;;;21.03;12.27;;;9.30;99.90;;;;;;5064543;28;20501;-52
2021/03/08 12:05:08;;;;;;;20.00;12.40;;;9.10;99.90;;;;;;5061563;28;20542;-52
2021/03/08 12:07:35;;;;;;;21.03;12.07;;;9.00;99.90;;;;;;5060083;28;20455;-51
2021/03/08 12:10:02;;;;;;;21.33;12.57;;;9.40;99.90;;;;;;5065765;28;20484;-52
2021/03/08 12:12:28;;;;;;;20.43;12.50;;;9.10;99.90;;;;;;5083616;28;20445;-52
2021/03/08 12:14:55;;;;;;;20.40;12.53;;;9.20;99.90;;;;;;5089707;28;20958;-53
2021/03/08 12:17:22;;;;;;;19.57;12.80;;;9.00;99.90;;;;;;5090230;28;20984;-52
2021/03/08 12:19:48;;;;;;;21.93;12.63;;;9.00;99.90;;;;;;5090148;28;20961;-52
2021/03/08 12:22:16;;;;;;;21.93;13.00;;;8.90;99.90;;;;;;5090819;28;21217;-52
2021/03/08 12:24:42;;;;;;;20.23;12.33;;;9.30;99.90;;;;;;5073989;28;20458;-53
2021/03/08 12:27:09;;;;;;;19.17;12.10;;;9.30;99.90;;;;;;5074119;28;20477;-54
2021/03/08 12:29:36;;;;;;;24.63;13.70;;;9.30;99.90;;;;;;5073963;28;20536;-52
2021/03/08 12:32:04;;;;;;;20.30;12.03;;;9.40;99.90;;;;;;5073833;28;20453;-52
2021/03/08 12:34:31;;;;;;;21.10;12.57;;;9.40;99.90;;;;;;5073792;28;20443;-53
2021/03/08 12:36:57;;;;;;;24.83;12.90;;;9.50;99.90;;;;;;5075107;28;20469;-52
2021/03/08 12:39:25;;;;;;;19.90;12.40;;;9.70;99.90;;;;;;5073749;28;20802;-53
2021/03/08 12:41:51;;;;;;;21.53;12.47;;;9.80;99.90;;;;;;5073980;28;20454;-51
2021/03/08 12:44:18;;;;;;;25.17;14.10;;;9.80;99.90;;;;;;5073457;28;20449;-52
2021/03/08 12:46:45;;;;;;;23.77;12.60;;;9.40;99.90;;;;;;5073816;28;20481;-53
2021/03/08 12:49:11;;;;;;;20.30;11.80;;;9.70;99.90;;;;;;5073524;28;20478;-52
2021/03/08 12:51:38;;;;;;;23.00;13.60;;;9.60;99.90;;;;;;5073684;28;20449;-53
2021/03/08 12:54:05;;;;;;;22.80;12.70;;;9.50;99.90;;;;;;5074742;28;20504;-52